»·PEaware :: AAL19 KSFO-KPSP

AAL19 :: KSFO-KPSP

FLIGHT INFORMATION

Flight Status: Arrived
Operator:
American Airlines
More flights by this operator :: More flights under this callsign
Pilot: Max W. (2591)
Aircraft: AIRBUS A321
(A321)
More flights by this aircraft type
Origin: KSFO San Francisco Intl
United States
Destination: KPSP Palm Springs Intl
United States
More flights between these airports :: More routes between these airports
Route: +SSTIK3 LOSHN PMD V137 PSP
File this flight plan on PilotEdge
Remarks: flying from the jungle in costa rica internet might be terrible
Altitude:
(Current/Filed)
35,000ft
Speed:
(Current/Filed)
500kts
Departed: 21-Dec-16 09:19 PM
Arrived: 21-Dec-16 10:28 PM
Distance/Time
Traveled:
365nm/1:09
Distance/Time
To Go:
Arrived

Flight Plot

Page will automatically refresh every two minutes.


Map Options




Map Legend


Flown Route
Filed Route
Departure Airport
Arrival Airport
Navaid (VOR, NDB)
Fix

Horizontal Profiles

Position Reports

Time Latitude Longitude Heading Altitude Ground
Speed
21-Dec-16 21:00 37.617320 -122.380650 256 27ft 0kts
21-Dec-16 21:01 37.617320 -122.380650 256 27ft 0kts
21-Dec-16 21:02 37.617320 -122.380650 256 27ft 0kts
21-Dec-16 21:03 37.617320 -122.380650 256 27ft 0kts
21-Dec-16 21:04 37.617320 -122.380650 256 27ft 0kts
21-Dec-16 21:05 37.617320 -122.380650 256 27ft 0kts
21-Dec-16 21:06 37.617406 -122.380195 256 27ft 2kts
21-Dec-16 21:07 37.617493 -122.379731 256 27ft 0kts
21-Dec-16 21:08 37.617449 -122.379892 234 27ft 2kts
21-Dec-16 21:09 37.611562 -122.383095 207 27ft 26kts
21-Dec-16 21:10 37.609262 -122.383232 119 27ft 13kts
21-Dec-16 21:11 37.615783 -122.377658 26 27ft 132kts
21-Dec-16 21:12 37.662956 -122.363295 4 2591ft 217kts
21-Dec-16 21:13 37.718773 -122.397506 293 5988ft 264kts
21-Dec-16 21:14 37.681380 -122.467976 185 9607ft 291kts
21-Dec-16 21:15 37.595146 -122.441466 133 11475ft 381kts
21-Dec-16 21:16 37.521458 -122.336025 130 14961ft 414kts
21-Dec-16 21:17 37.444725 -122.222546 130 18099ft 434kts
21-Dec-16 21:18 37.365361 -122.103971 130 20723ft 452kts
21-Dec-16 21:19 37.283314 -121.980512 130 22712ft 466kts
21-Dec-16 21:20 37.200346 -121.853644 131 24504ft 472kts
21-Dec-16 21:21 37.116228 -121.724963 132 25948ft 480kts
21-Dec-16 21:22 37.031043 -121.594909 132 27250ft 485kts
21-Dec-16 21:23 36.945933 -121.463386 132 28598ft 485kts
21-Dec-16 21:24 36.861374 -121.332214 132 29889ft 482kts
21-Dec-16 21:25 36.777103 -121.201954 132 31120ft 480kts
21-Dec-16 21:26 36.693273 -121.073067 132 32303ft 478kts
21-Dec-16 21:27 36.609295 -120.944508 132 33441ft 476kts
21-Dec-16 21:28 36.525443 -120.816719 132 34522ft 475kts
21-Dec-16 21:29 36.441989 -120.689768 132 35144ft 470kts
21-Dec-16 21:30 36.359573 -120.564593 133 35139ft 467kts
21-Dec-16 21:31 36.276840 -120.440032 133 35130ft 466kts
21-Dec-16 21:32 36.194267 -120.316251 133 35135ft 464kts
21-Dec-16 21:33 36.111800 -120.193182 133 35137ft 463kts
21-Dec-16 21:34 36.029503 -120.070952 133 35137ft 462kts
21-Dec-16 21:35 35.960557 -119.969008 133 35133ft 462kts
21-Dec-16 21:36 35.877897 -119.847113 133 35130ft 462kts
21-Dec-16 21:37 35.795402 -119.725672 134 35126ft 459kts
21-Dec-16 21:38 35.713552 -119.605583 135 35121ft 457kts
21-Dec-16 21:39 35.631857 -119.486074 135 35110ft 453kts
21-Dec-16 21:40 35.550851 -119.367980 136 35106ft 449kts
21-Dec-16 21:41 35.470407 -119.251187 137 35098ft 445kts
21-Dec-16 21:42 35.391003 -119.136396 137 35100ft 441kts
21-Dec-16 21:43 35.311588 -119.022168 138 35101ft 437kts
21-Dec-16 21:44 35.232617 -118.909013 138 35114ft 434kts
21-Dec-16 21:45 35.154688 -118.797425 139 34182ft 421kts
21-Dec-16 21:46 35.081167 -118.691982 140 31643ft 396kts
21-Dec-16 21:47 35.011007 -118.592229 139 29147ft 377kts
21-Dec-16 21:48 34.943170 -118.496501 138 26593ft 367kts
21-Dec-16 21:49 34.875467 -118.401702 137 23308ft 379kts
21-Dec-16 21:50 34.806114 -118.304631 136 20253ft 375kts
21-Dec-16 21:51 34.738655 -118.210428 136 17669ft 363kts
21-Dec-16 21:52 34.672932 -118.119093 135 15227ft 353kts
21-Dec-16 21:53 34.613465 -118.024958 122 13979ft 356kts
21-Dec-16 21:54 34.563900 -117.916032 122 13956ft 386kts
21-Dec-16 21:55 34.511726 -117.801701 122 13934ft 388kts
21-Dec-16 21:56 34.459123 -117.687254 122 13923ft 388kts
21-Dec-16 21:57 34.406390 -117.572788 122 13914ft 388kts
21-Dec-16 21:58 34.353634 -117.458560 122 13907ft 387kts
21-Dec-16 21:59 34.300824 -117.345057 122 13892ft 386kts
21-Dec-16 22:00 34.247875 -117.231416 122 13889ft 387kts
21-Dec-16 22:01 34.194964 -117.118127 122 13895ft 386kts
21-Dec-16 22:02 34.142072 -117.005194 122 13915ft 385kts
21-Dec-16 22:03 34.090780 -116.895786 122 13930ft 340kts
21-Dec-16 22:04 34.048396 -116.805723 123 13951ft 294kts
21-Dec-16 22:05 34.006898 -116.718161 121 12142ft 296kts
21-Dec-16 22:06 33.970273 -116.640535 120 11266ft 240kts
21-Dec-16 22:07 33.938090 -116.572772 119 9639ft 227kts
21-Dec-16 22:08 33.907115 -116.507520 118 7919ft 222kts
21-Dec-16 22:09 33.877173 -116.444523 118 6612ft 200kts
21-Dec-16 22:10 33.850806 -116.385845 119 5822ft 190kts
21-Dec-16 22:11 33.821764 -116.330497 117 5971ft 196kts
21-Dec-16 22:12 33.800563 -116.276927 120 5936ft 190kts
21-Dec-16 22:13 33.750594 -116.271818 203 4759ft 234kts
21-Dec-16 22:14 33.699722 -116.305070 218 4388ft 180kts
21-Dec-16 22:15 33.670987 -116.352640 286 4054ft 187kts
21-Dec-16 22:16 33.705824 -116.392470 322 3092ft 164kts
21-Dec-16 22:17 33.742575 -116.427904 321 3059ft 171kts
21-Dec-16 22:18 33.779210 -116.461937 322 1818ft 166kts
21-Dec-16 22:19 33.813891 -116.493408 322 670ft 152kts
21-Dec-16 22:20 33.829517 -116.508583 254 491ft 0kts
21-Dec-16 22:21 33.827025 -116.507032 163 491ft 44kts

Navigation Log

Ident Type
Flight plan parsing failed, navigation log unavailable